Time;durP1;ratioP1;P1;durP2;ratioP2;P2;SDS_P1;SDS_P2;PMS_P1;PMS_P2;Temp;Humidity;BMP_temperature;BMP_pressure;BME280_temperature;BME280_humidity;BME280_pressure;Samples;Min_cycle;Max_cycle;Signal;HPM_P1;HPM_P2
2023/09/08 00:01:23;;;;;;;10.30;6.20;;;26.40;76.40;;;;;;7383030;19;20007;-80
2023/09/08 00:03:55;;;;;;;12.55;6.70;;;26.30;76.50;;;;;;7382616;19;20115;-80
2023/09/08 00:06:24;;;;;;;9.07;6.13;;;26.30;76.60;;;;;;7388820;19;20010;-79
2023/09/08 00:08:54;;;;;;;13.20;6.93;;;26.20;76.80;;;;;;7388910;19;20033;-80
2023/09/08 00:11:23;;;;;;;12.10;6.97;;;26.20;76.90;;;;;;7383993;19;20030;-80
2023/09/08 00:13:52;;;;;;;20.40;7.97;;;26.10;77.00;;;;;;7402770;19;20353;-80
2023/09/08 00:16:21;;;;;;;15.43;7.10;;;26.10;77.20;;;;;;7381806;19;20023;-80
2023/09/08 00:18:55;;;;;;;17.30;7.53;;;26.10;78.10;;;;;;7381812;19;20266;-80
2023/09/08 00:21:24;;;;;;;17.67;7.05;;;26.10;77.30;;;;;;7382420;19;20271;-80
2023/09/08 00:23:53;;;;;;;11.88;7.20;;;26.10;77.30;;;;;;7381232;19;20500;-80
2023/09/08 00:26:21;;;;;;;19.98;8.50;;;26.10;77.50;;;;;;7381474;19;20055;-80
2023/09/08 00:28:52;;;;;;;19.77;9.10;;;26.20;77.40;;;;;;7402645;19;20023;-80
2023/09/08 00:31:24;;;;;;;17.27;8.87;;;26.20;77.40;;;;;;7382367;19;20394;-79
2023/09/08 00:33:59;;;;;;;20.65;8.80;;;26.10;77.30;;;;;;7387663;19;20030;-79
2023/09/08 00:36:27;;;;;;;15.35;8.32;;;26.10;77.50;;;;;;7389923;19;20019;-80
2023/09/08 00:38:59;;;;;;;21.50;7.55;;;26.10;77.60;;;;;;7391229;19;20014;-79
2023/09/08 00:41:28;;;;;;;14.18;7.75;;;26.00;77.70;;;;;;7393830;19;20346;-79
2023/09/08 00:43:58;;;;;;;14.30;8.23;;;26.00;77.90;;;;;;7401737;19;20027;-79
2023/09/08 00:46:27;;;;;;;15.23;8.93;;;25.90;77.90;;;;;;7381455;19;20010;-79
2023/09/08 00:48:59;;;;;;;18.38;8.93;;;25.90;78.20;;;;;;7381199;19;20011;-79
2023/09/08 00:51:28;;;;;;;18.70;8.57;;;25.90;78.20;;;;;;7380624;19;20365;-79
2023/09/08 00:54:07;;;;;;;21.75;9.27;;;25.90;78.10;;;;;;7379580;19;20011;-80
2023/09/08 00:56:37;;;;;;;17.35;8.68;;;25.90;78.30;;;;;;7379182;19;20021;-79
2023/09/08 00:59:08;;;;;;;17.17;8.27;;;25.90;78.20;;;;;;7411319;19;20030;-80
2023/09/08 01:01:40;;;;;;;15.68;8.00;;;25.90;78.20;;;;;;7395754;19;20010;-80
2023/09/08 01:04:17;;;;;;;25.45;9.38;;;25.90;78.00;;;;;;7396159;19;20003;-80
2023/09/08 01:06:52;;;;;;;23.52;9.60;;;25.80;78.20;;;;;;7387525;19;20003;-80
2023/09/08 01:09:26;;;;;;;23.10;9.93;;;25.80;78.50;;;;;;7387543;19;20014;-80
2023/09/08 01:12:01;;;;;;;21.05;10.30;;;25.70;78.60;;;;;;7386465;19;19999;-80
2023/09/08 01:14:33;;;;;;;25.10;10.65;;;25.70;78.70;;;;;;7388098;19;20011;-80
2023/09/08 01:17:02;;;;;;;24.88;10.68;;;25.70;78.70;;;;;;7406669;19;20006;-80
2023/09/08 01:19:39;;;;;;;25.83;9.90;;;25.70;78.80;;;;;;7385659;19;20038;-80
2023/09/08 01:22:59;;;;;;;27.70;11.15;;;25.70;78.80;;;;;;7387174;19;20013;-80
2023/09/08 01:25:43;;;;;;;27.42;11.52;;;25.70;79.00;;;;;;7386103;19;20006;-80
2023/09/08 01:28:25;;;;;;;27.85;11.32;;;25.60;78.90;;;;;;7385918;19;20003;-80
2023/09/08 01:30:58;;;;;;;32.60;10.77;;;25.60;78.90;;;;;;7386077;19;19999;-80
2023/09/08 01:33:27;;;;;;;24.50;10.75;;;25.70;78.80;;;;;;7387653;19;20280;-80
2023/09/08 01:36:01;;;;;;;24.83;10.88;;;25.70;78.90;;;;;;7385459;19;20034;-80
2023/09/08 01:38:35;;;;;;;29.48;11.88;;;25.70;78.90;;;;;;7384641;19;20030;-80
2023/09/08 01:41:24;;;;;;;22.05;10.40;;;25.60;78.70;;;;;;7405826;19;20034;-80
2023/09/08 01:43:54;;;;;;;20.27;9.32;;;25.60;78.90;;;;;;7386562;19;20014;-79
2023/09/08 01:46:25;;;;;;;21.45;9.27;;;25.60;78.60;;;;;;7385767;19;20011;-80
2023/09/08 01:48:59;;;;;;;27.23;8.57;;;25.60;78.60;;;;;;7386146;19;20017;-80
2023/09/08 01:51:30;;;;;;;20.98;9.13;;;25.70;78.70;;;;;;7389704;19;20006;-80
2023/09/08 01:54:04;;;;;;;14.40;7.90;;;25.60;78.60;;;;;;7393311;19;20006;-80
2023/09/08 01:56:46;;;;;;;10.95;7.30;;;25.60;78.90;;;;;;7392059;19;20018;-80
2023/09/08 01:59:27;;;;;;;;;;;;;;;;;;;;;
2023/09/08 02:02:03;;;;;;;21.10;8.80;;;25.50;79.00;;;;;;7385446;19;20242;-80
2023/09/08 02:04:46;;;;;;;19.08;8.48;;;25.50;79.20;;;;;;7385899;19;20006;-80
2023/09/08 02:07:21;;;;;;;19.10;8.93;;;25.50;79.30;;;;;;7385282;19;20013;-80
2023/09/08 02:09:54;;;;;;;21.02;9.95;;;25.40;79.30;;;;;;7384478;19;20015;-80
2023/09/08 02:12:33;;;;;;;22.95;10.75;;;25.50;79.30;;;;;;7386279;19;20002;-81
2023/09/08 02:15:04;;;;;;;26.58;10.77;;;25.40;79.30;;;;;;7385431;19;20054;-79
2023/09/08 02:17:39;;;;;;;25.55;11.82;;;25.40;79.30;;;;;;7385592;19;19999;-80
2023/09/08 02:20:17;;;;;;;27.98;10.93;;;25.40;79.40;;;;;;7412194;19;20010;-80
2023/09/08 02:22:49;;;;;;;28.00;11.48;;;25.40;79.40;;;;;;7405103;19;20011;-79
2023/09/08 02:25:18;;;;;;;23.05;10.25;;;25.40;79.40;;;;;;7406471;19;20050;-79
2023/09/08 02:27:51;;;;;;;22.52;10.52;;;25.40;79.60;;;;;;7400368;19;20013;-79
2023/09/08 02:30:22;;;;;;;19.17;10.43;;;25.30;79.50;;;;;;7386196;19;20006;-79
2023/09/08 02:32:57;;;;;;;22.15;10.05;;;25.40;79.40;;;;;;7383388;19;20058;-79
2023/09/08 02:35:29;;;;;;;17.80;8.77;;;25.40;79.30;;;;;;7383365;19;20034;-79
2023/09/08 02:38:04;;;;;;;20.70;9.43;;;25.40;79.20;;;;;;7404103;19;20039;-80
2023/09/08 02:40:34;;;;;;;18.35;9.68;;;25.40;79.30;;;;;;7384296;19;20011;-80
2023/09/08 02:43:11;;;;;;;23.55;9.45;;;25.40;79.30;;;;;;7392360;19;20015;-80
2023/09/08 02:45:43;;;;;;;25.60;8.75;;;25.40;79.40;;;;;;7390591;19;20504;-80
2023/09/08 02:48:11;;;;;;;20.85;9.55;;;25.30;79.30;;;;;;7383793;19;20059;-80
2023/09/08 02:50:53;;;;;;;;;;;;;;;;;;;;;
2023/09/08 02:53:31;;;;;;;22.75;9.75;;;25.30;79.50;;;;;;7385129;19;20007;-80
2023/09/08 02:56:05;;;;;;;17.35;8.98;;;25.30;79.60;;;;;;7403292;19;20017;-80
2023/09/08 02:58:36;;;;;;;22.95;10.93;;;25.20;79.70;;;;;;7384208;19;20066;-80
2023/09/08 03:01:20;;;;;;;19.73;10.65;;;25.20;79.70;;;;;;7383485;19;20018;-81
2023/09/08 03:03:57;;;;;;;25.55;11.10;;;25.10;79.90;;;;;;7384416;19;20172;-81
2023/09/08 03:06:29;;;;;;;20.73;9.98;;;25.00;80.10;;;;;;7383323;19;20002;-80
2023/09/08 03:09:01;;;;;;;23.33;10.45;;;25.00;80.20;;;;;;7382980;19;20006;-80
2023/09/08 03:11:30;;;;;;;17.48;9.93;;;25.00;80.50;;;;;;7383208;19;20068;-80
2023/09/08 03:14:01;;;;;;;23.42;10.50;;;24.90;80.70;;;;;;7406508;19;20083;-80
2023/09/08 03:16:33;;;;;;;21.48;10.25;;;24.90;80.70;;;;;;7384368;19;20046;-80
2023/09/08 03:19:03;;;;;;;27.90;10.45;;;24.90;80.50;;;;;;7383509;19;20400;-80
2023/09/08 03:21:32;;;;;;;24.65;9.57;;;24.90;80.40;;;;;;7381103;19;20010;-80
2023/09/08 03:24:01;;;;;;;26.85;10.25;;;24.90;80.40;;;;;;7382424;19;20013;-79
2023/09/08 03:26:35;;;;;;;24.38;10.50;;;24.90;80.70;;;;;;7381455;19;20002;-79
2023/09/08 03:29:11;;;;;;;23.63;10.15;;;24.90;80.80;;;;;;7403040;19;20010;-79
2023/09/08 03:31:49;;;;;;;21.90;9.57;;;24.90;80.70;;;;;;7381874;19;20007;-79
2023/09/08 03:34:21;;;;;;;23.00;9.15;;;24.90;80.40;;;;;;7388661;19;20020;-80
2023/09/08 03:36:52;;;;;;;20.65;9.02;;;24.90;80.20;;;;;;7390431;19;20002;-80
2023/09/08 03:39:33;;;;;;;21.80;8.35;;;24.90;80.20;;;;;;7385704;19;20010;-80
2023/09/08 03:42:19;;;;;;;15.85;8.75;;;25.00;80.40;;;;;;7383735;19;20003;-80
2023/09/08 03:44:53;;;;;;;19.73;8.80;;;25.00;80.30;;;;;;7381928;19;20003;-79
2023/09/08 03:47:37;;;;;;;20.60;8.70;;;25.00;80.20;;;;;;7384709;19;20015;-80
2023/09/08 03:50:23;;;;;;;13.48;7.72;;;25.00;80.20;;;;;;7404427;19;20260;-81
2023/09/08 03:52:57;;;;;;;19.25;8.57;;;25.00;80.10;;;;;;7382440;19;20024;-81
2023/09/08 03:55:29;;;;;;;16.80;8.88;;;25.00;80.30;;;;;;7383661;19;20299;-81
2023/09/08 03:58:03;;;;;;;15.90;8.38;;;24.90;81.10;;;;;;7382310;19;20007;-81
2023/09/08 04:00:42;;;;;;;16.27;8.38;;;24.90;80.50;;;;;;7381986;19;19999;-80
2023/09/08 04:03:17;;;;;;;18.08;8.35;;;24.80;80.80;;;;;;7381247;19;19999;-80
2023/09/08 04:05:51;;;;;;;22.30;9.05;;;24.70;81.10;;;;;;7385057;19;20033;-80
2023/09/08 04:08:27;;;;;;;18.88;8.98;;;24.70;81.30;;;;;;7391601;19;20042;-81
2023/09/08 04:10:56;;;;;;;19.10;8.27;;;24.70;81.50;;;;;;7411781;19;20002;-80
2023/09/08 04:13:25;;;;;;;17.25;9.05;;;24.70;81.40;;;;;;7390411;19;20010;-80
2023/09/08 04:16:01;;;;;;;18.88;8.55;;;24.60;81.40;;;;;;7386340;19;20007;-80
2023/09/08 04:18:31;;;;;;;20.70;9.38;;;24.60;81.40;;;;;;7381889;19;20033;-81
2023/09/08 04:21:02;;;;;;;21.85;8.88;;;24.70;81.30;;;;;;7380953;19;20026;-80
2023/09/08 04:23:33;;;;;;;25.15;8.63;;;24.70;81.30;;;;;;7380772;19;20007;-79
2023/09/08 04:26:08;;;;;;;17.15;7.90;;;24.70;80.90;;;;;;7410946;19;20014;-79
2023/09/08 04:28:39;;;;;;;22.73;8.50;;;24.70;80.90;;;;;;7389579;19;20014;-80
2023/09/08 04:31:10;;;;;;;;;;;24.70;81.00;;;;;;7384390;19;20010;-79
2023/09/08 04:33:39;;;;;;;20.13;8.90;;;24.70;81.10;;;;;;7381475;19;19924;-80
2023/09/08 04:36:10;;;;;;;16.92;8.48;;;24.70;81.10;;;;;;7381659;19;20030;-79
2023/09/08 04:38:44;;;;;;;17.35;8.23;;;24.70;81.00;;;;;;7381405;19;20342;-80
2023/09/08 04:41:18;;;;;;;16.77;8.20;;;24.70;81.00;;;;;;7402669;19;20010;-80
2023/09/08 04:43:51;;;;;;;15.95;8.48;;;24.70;81.00;;;;;;7386474;19;20006;-79
2023/09/08 04:46:25;;;;;;;17.83;8.00;;;24.70;81.20;;;;;;7379969;19;20014;-80
2023/09/08 04:48:58;;;;;;;16.67;8.48;;;24.70;81.10;;;;;;7380932;19;20002;-80
2023/09/08 04:51:29;;;;;;;23.45;8.98;;;24.60;81.30;;;;;;7380972;19;20704;-79
2023/09/08 04:54:00;;;;;;;20.58;7.97;;;24.60;81.50;;;;;;7380171;19;20006;-79
2023/09/08 04:56:31;;;;;;;21.85;8.43;;;24.60;81.60;;;;;;7381801;19;20078;-79
2023/09/08 04:59:03;;;;;;;15.23;7.97;;;24.60;81.60;;;;;;7400486;19;20014;-80
2023/09/08 05:01:50;;;;;;;22.98;8.52;;;24.60;81.80;;;;;;7378408;19;20002;-80
2023/09/08 05:04:26;;;;;;;22.70;8.88;;;24.60;81.70;;;;;;7379726;19;20021;-79
2023/09/08 05:07:01;;;;;;;20.85;8.60;;;24.60;81.60;;;;;;7379477;19;20015;-79
2023/09/08 05:09:38;;;;;;;19.58;8.45;;;24.60;81.50;;;;;;7380120;19;20045;-80
2023/09/08 05:12:12;;;;;;;20.10;8.27;;;24.60;81.60;;;;;;7382884;19;20018;-80
2023/09/08 05:14:47;;;;;;;19.08;7.80;;;24.60;81.60;;;;;;7381602;19;20007;-79
2023/09/08 05:17:25;;;;;;;20.33;8.93;;;24.60;81.50;;;;;;7405989;19;20007;-80
2023/09/08 05:20:04;;;;;;;19.15;8.55;;;24.60;81.40;;;;;;7405907;19;20011;-80
2023/09/08 05:22:41;;;;;;;16.45;8.30;;;24.50;81.60;;;;;;7381514;19;20058;-80
2023/09/08 05:25:26;;;;;;;18.40;8.95;;;24.50;81.60;;;;;;7380494;19;20007;-80
2023/09/08 05:28:02;;;;;;;18.23;8.80;;;24.40;81.70;;;;;;7379963;19;19999;-80
2023/09/08 05:30:33;;;;;;;20.23;8.88;;;24.40;81.90;;;;;;7380442;19;20034;-81
2023/09/08 05:33:24;;;;;;;22.58;8.85;;;24.40;81.90;;;;;;7381430;19;20587;-81
2023/09/08 05:35:58;;;;;;;17.65;8.60;;;24.40;82.00;;;;;;7379275;19;20006;-80
2023/09/08 05:38:28;;;;;;;26.08;9.40;;;24.50;82.20;;;;;;7380851;19;20023;-80
2023/09/08 05:43:44;;;;;;;15.50;7.93;;;24.40;82.20;;;;;;7380727;19;20058;-79
2023/09/08 05:46:18;;;;;;;17.15;8.20;;;24.40;82.30;;;;;;7386682;19;20155;-80
2023/09/08 05:49:03;;;;;;;15.88;8.85;;;24.40;82.40;;;;;;7385707;19;20357;-79
2023/09/08 05:51:34;;;;;;;17.08;8.00;;;24.40;82.60;;;;;;7387142;19;20026;-79
2023/09/08 05:54:07;;;;;;;18.05;8.13;;;24.40;82.60;;;;;;7385823;19;20002;-80
2023/09/08 05:56:57;;;;;;;17.95;8.73;;;24.40;82.50;;;;;;7396399;19;20002;-80
2023/09/08 05:59:32;;;;;;;13.30;8.13;;;24.40;82.30;;;;;;7399445;19;20019;-80
2023/09/08 06:02:03;;;;;;;22.75;8.40;;;24.40;82.20;;;;;;7418499;19;20015;-81
2023/09/08 06:04:46;;;;;;;20.17;8.82;;;24.50;82.20;;;;;;7401582;19;20006;-81
2023/09/08 06:07:43;;;;;;;;;;;;;;;;;;;;;
2023/09/08 06:10:17;;;;;;;22.90;8.98;;;24.50;82.30;;;;;;7389093;19;20002;-80
2023/09/08 06:12:46;;;;;;;29.63;9.52;;;24.60;82.30;;;;;;7388416;19;20006;-80
2023/09/08 06:15:18;;;;;;;25.77;8.70;;;24.60;82.30;;;;;;7389186;19;20023;-80
2023/09/08 06:17:53;;;;;;;28.70;9.27;;;24.60;82.40;;;;;;7388280;19;20026;-81
2023/09/08 06:20:26;;;;;;;32.95;9.70;;;24.60;82.40;;;;;;7386852;19;20006;-81
2023/09/08 06:22:58;;;;;;;33.75;9.63;;;24.70;82.50;;;;;;7411050;19;20011;-80
2023/09/08 06:25:31;;;;;;;35.42;9.50;;;24.70;82.50;;;;;;7386595;19;20400;-80
2023/09/08 06:28:02;;;;;;;27.73;9.05;;;24.70;82.60;;;;;;7385596;19;20038;-79
2023/09/08 06:30:35;;;;;;;22.08;9.38;;;24.80;82.60;;;;;;7385143;19;20420;-80
2023/09/08 06:33:06;;;;;;;28.27;9.30;;;24.80;82.70;;;;;;7385116;19;20331;-79
2023/09/08 06:35:40;;;;;;;22.35;8.90;;;24.90;82.60;;;;;;7385700;19;20066;-80
2023/09/08 06:38:14;;;;;;;20.60;8.95;;;25.00;82.60;;;;;;7405044;19;20058;-80
2023/09/08 06:40:43;;;;;;;16.85;8.52;;;25.00;82.60;;;;;;7385069;19;20528;-80
2023/09/08 06:43:13;;;;;;;21.42;8.30;;;25.10;82.60;;;;;;7384426;19;20003;-79
2023/09/08 06:45:42;;;;;;;25.73;8.35;;;25.10;82.50;;;;;;7385803;19;20015;-80
2023/09/08 06:48:11;;;;;;;22.48;8.18;;;25.20;82.50;;;;;;7384530;19;20006;-80
2023/09/08 06:50:45;;;;;;;18.63;8.25;;;25.30;82.50;;;;;;7384390;19;20006;-79
2023/09/08 06:53:17;;;;;;;32.85;8.85;;;25.30;82.30;;;;;;7410188;19;20354;-80
2023/09/08 06:55:46;;;;;;;17.50;7.78;;;25.40;82.30;;;;;;7390591;19;19999;-80
2023/09/08 06:58:17;;;;;;;27.88;8.45;;;25.40;82.30;;;;;;7385510;19;20063;-80
2023/09/08 07:00:54;;;;;;;23.33;8.40;;;25.50;82.30;;;;;;7383679;19;20349;-80
2023/09/08 07:03:36;;;;;;;22.05;8.57;;;25.50;82.20;;;;;;7384519;19;20034;-80
2023/09/08 07:06:09;;;;;;;38.58;9.32;;;25.50;82.00;;;;;;7383755;19;20046;-80
2023/09/08 07:08:43;;;;;;;34.35;9.95;;;25.60;82.00;;;;;;7382744;19;20059;-79
2023/09/08 07:11:17;;;;;;;28.00;8.60;;;25.70;82.20;;;;;;7405734;19;20006;-80
2023/09/08 07:13:48;;;;;;;28.85;9.52;;;25.70;82.40;;;;;;7383533;19;20006;-80
2023/09/08 07:16:23;;;;;;;38.85;9.32;;;25.70;82.50;;;;;;7384535;19;20014;-80
2023/09/08 07:18:55;;;;;;;32.60;8.95;;;25.80;82.60;;;;;;7383024;19;20358;-80
2023/09/08 07:21:31;;;;;;;33.15;8.32;;;25.90;82.70;;;;;;7382461;19;19999;-81
2023/09/08 07:24:00;;;;;;;25.63;8.95;;;25.90;82.60;;;;;;7383039;19;20009;-80
2023/09/08 07:26:29;;;;;;;35.53;8.52;;;26.00;82.60;;;;;;7382572;19;20013;-80
2023/09/08 07:28:58;;;;;;;27.90;8.65;;;26.10;82.60;;;;;;7403241;19;20038;-80
2023/09/08 07:31:27;;;;;;;24.42;7.68;;;26.10;82.60;;;;;;7384827;19;20006;-80
2023/09/08 07:33:57;;;;;;;23.95;7.70;;;26.20;82.80;;;;;;7382394;19;20018;-80
2023/09/08 07:36:32;;;;;;;18.73;7.60;;;26.30;83.00;;;;;;7383949;19;20010;-80
2023/09/08 07:39:02;;;;;;;25.45;8.23;;;26.40;83.20;;;;;;7384678;19;19999;-80
2023/09/08 07:41:33;;;;;;;27.02;7.82;;;26.40;83.30;;;;;;7384784;19;20036;-81
2023/09/08 07:44:05;;;;;;;30.58;8.38;;;26.50;83.30;;;;;;7406034;19;20006;-80
2023/09/08 07:46:38;;;;;;;17.67;7.47;;;26.60;82.60;;;;;;7382953;19;20323;-80
2023/09/08 07:49:13;;;;;;;20.80;6.63;;;26.60;82.00;;;;;;7383389;19;20023;-81
2023/09/08 07:51:44;;;;;;;14.05;6.38;;;26.70;81.30;;;;;;7382791;19;20010;-80
2023/09/08 07:54:16;;;;;;;19.02;6.80;;;26.70;80.70;;;;;;7387520;19;20014;-81
2023/09/08 07:56:49;;;;;;;20.08;6.30;;;26.80;80.30;;;;;;7389716;19;20082;-81
2023/09/08 07:59:20;;;;;;;16.92;7.18;;;26.90;80.10;;;;;;7391080;19;20082;-81
2023/09/08 08:01:49;;;;;;;26.13;7.47;;;26.90;79.80;;;;;;7408345;19;20010;-81
2023/09/08 08:04:18;;;;;;;25.42;6.97;;;27.00;79.60;;;;;;7383272;19;19999;-81
2023/09/08 08:06:55;;;;;;;18.48;7.00;;;27.00;79.50;;;;;;7382580;19;20007;-81
2023/09/08 08:09:34;;;;;;;22.20;6.57;;;27.00;79.40;;;;;;7381970;19;20003;-79
2023/09/08 08:12:02;;;;;;;16.08;7.40;;;27.10;79.30;;;;;;7380206;19;20033;-79
2023/09/08 08:14:33;;;;;;;15.18;6.13;;;27.10;79.10;;;;;;7380109;19;20030;-80
2023/09/08 08:17:05;;;;;;;14.68;5.70;;;27.10;78.80;;;;;;7401638;19;20058;-80
2023/09/08 08:19:37;;;;;;;13.95;5.75;;;27.20;78.70;;;;;;7381591;19;19998;-80
2023/09/08 08:22:08;;;;;;;16.75;6.00;;;27.20;78.70;;;;;;7379058;19;20003;-80
2023/09/08 08:24:40;;;;;;;14.95;6.20;;;27.20;78.40;;;;;;7381368;19;20017;-80
2023/09/08 08:27:09;;;;;;;14.27;6.10;;;27.30;78.30;;;;;;7381412;19;20003;-80
2023/09/08 08:29:39;;;;;;;21.90;6.35;;;27.30;78.20;;;;;;7384286;19;20022;-80
2023/09/08 08:32:09;;;;;;;21.83;5.95;;;27.40;78.20;;;;;;7408217;19;20299;-79
2023/09/08 08:34:38;;;;;;;19.17;6.25;;;27.40;78.40;;;;;;7381694;19;20006;-79
2023/09/08 08:37:09;;;;;;;16.63;6.35;;;27.40;78.30;;;;;;7381130;19;20071;-80
2023/09/08 08:39:38;;;;;;;14.35;6.40;;;27.50;78.20;;;;;;7381119;19;20002;-79
2023/09/08 08:42:12;;;;;;;16.83;6.50;;;27.50;78.20;;;;;;7380028;19;20163;-80
2023/09/08 08:44:41;;;;;;;25.35;6.68;;;27.50;78.10;;;;;;7381102;19;20082;-80
2023/09/08 08:47:20;;;;;;;19.13;6.28;;;27.60;78.10;;;;;;7400660;19;20010;-80
2023/09/08 08:49:53;;;;;;;24.13;6.43;;;27.60;78.20;;;;;;7380842;19;20014;-80
2023/09/08 08:52:28;;;;;;;20.42;5.97;;;27.60;78.30;;;;;;7380263;19;20007;-80
2023/09/08 08:55:03;;;;;;;16.65;6.20;;;27.70;79.20;;;;;;7380592;19;20003;-80
2023/09/08 08:57:38;;;;;;;13.20;5.72;;;27.70;78.30;;;;;;7380409;19;20003;-81
2023/09/08 09:00:15;;;;;;;22.35;6.25;;;27.80;78.30;;;;;;7379689;19;20010;-80
2023/09/08 09:02:53;;;;;;;20.90;6.63;;;27.80;77.90;;;;;;7379845;19;20003;-80
2023/09/08 09:05:30;;;;;;;20.02;6.65;;;27.90;77.90;;;;;;7380626;19;20096;-80
2023/09/08 09:08:08;;;;;;;23.45;6.63;;;27.90;77.80;;;;;;7401336;19;20046;-79
2023/09/08 09:10:38;;;;;;;15.25;7.03;;;27.90;77.60;;;;;;7379420;19;20014;-80
2023/09/08 09:13:11;;;;;;;15.60;6.10;;;28.00;77.80;;;;;;7379875;19;20062;-80
2023/09/08 09:15:44;;;;;;;20.10;5.82;;;28.00;78.00;;;;;;7381917;19;20014;-80
2023/09/08 09:18:18;;;;;;;25.65;6.55;;;28.00;77.60;;;;;;7385230;19;20034;-80
2023/09/08 09:20:59;;;;;;;14.75;6.10;;;28.00;77.50;;;;;;7390382;19;20381;-80
2023/09/08 09:23:39;;;;;;;14.85;6.03;;;28.10;77.30;;;;;;7394760;19;20003;-79
2023/09/08 09:26:12;;;;;;;17.65;6.88;;;28.10;77.20;;;;;;7412702;19;20031;-80
2023/09/08 09:28:57;;;;;;;15.32;6.53;;;28.10;76.70;;;;;;7391783;19;20012;-81
2023/09/08 09:31:40;;;;;;;22.17;6.63;;;28.20;76.40;;;;;;7394766;19;20011;-80
2023/09/08 09:34:15;;;;;;;25.48;6.20;;;28.20;76.40;;;;;;7392400;19;20010;-81
2023/09/08 09:36:50;;;;;;;19.33;6.13;;;28.30;76.10;;;;;;7387224;19;20032;-79
2023/09/08 09:39:26;;;;;;;19.33;6.20;;;28.30;76.20;;;;;;7389101;19;20017;-81
2023/09/08 09:42:04;;;;;;;23.73;6.45;;;28.30;76.10;;;;;;7390096;19;20014;-81
2023/09/08 09:44:35;;;;;;;23.05;5.82;;;28.30;76.30;;;;;;7408630;19;20027;-80
2023/09/08 09:47:16;;;;;;;21.10;6.85;;;28.30;76.30;;;;;;7432080;19;20043;-80
2023/09/08 09:49:53;;;;;;;17.60;7.70;;;28.40;76.30;;;;;;7412339;19;20009;-81
2023/09/08 09:52:31;;;;;;;15.90;6.93;;;28.40;76.50;;;;;;7401518;19;20010;-81
2023/09/08 09:55:02;;;;;;;21.80;6.50;;;28.40;77.40;;;;;;7387389;19;20045;-80
2023/09/08 09:57:38;;;;;;;13.25;6.00;;;28.50;76.60;;;;;;7386845;19;20011;-81
2023/09/08 10:00:14;;;;;;;31.00;6.50;;;28.50;76.20;;;;;;7387405;19;20027;-80
2023/09/08 10:02:49;;;;;;;14.00;6.10;;;28.50;75.90;;;;;;7386917;19;20007;-81
2023/09/08 10:05:22;;;;;;;13.73;5.25;;;28.60;76.00;;;;;;7390294;19;20016;-80
2023/09/08 10:07:52;;;;;;;15.90;6.07;;;28.60;76.20;;;;;;7406199;19;20010;-80
2023/09/08 10:10:24;;;;;;;22.15;5.40;;;28.60;75.40;;;;;;7388142;19;20363;-79
2023/09/08 10:12:57;;;;;;;15.88;5.05;;;28.70;75.60;;;;;;7389406;19;20354;-79
2023/09/08 10:15:29;;;;;;;24.00;5.30;;;28.70;75.50;;;;;;7390213;19;20002;-79
2023/09/08 10:18:00;;;;;;;17.90;5.68;;;28.70;75.20;;;;;;7390866;19;20010;-80
2023/09/08 10:20:33;;;;;;;;;;;28.80;75.20;;;;;;7394520;19;20066;-80
2023/09/08 10:23:16;;;;;;;16.15;5.38;;;28.80;74.80;;;;;;7409752;19;20242;-80
2023/09/08 10:25:54;;;;;;;14.95;5.57;;;28.80;74.90;;;;;;7386697;19;20066;-81
2023/09/08 10:28:25;;;;;;;26.83;5.88;;;28.90;75.10;;;;;;7386536;19;20504;-81
2023/09/08 10:30:55;;;;;;;21.40;5.45;;;28.90;74.40;;;;;;7386478;19;20007;-81
2023/09/08 10:33:37;;;;;;;13.60;5.18;;;29.00;73.90;;;;;;7385948;19;20030;-81
2023/09/08 10:36:07;;;;;;;12.73;6.00;;;29.00;73.90;;;;;;7387131;19;20062;-81
2023/09/08 10:38:37;;;;;;;16.92;5.57;;;29.00;73.50;;;;;;7386643;19;20022;-81
2023/09/08 10:41:33;;;;;;;18.85;5.75;;;29.10;72.80;;;;;;7407705;19;20021;-80
2023/09/08 10:44:13;;;;;;;15.65;5.38;;;29.20;72.70;;;;;;7385709;19;20011;-80
2023/09/08 10:46:50;;;;;;;20.50;6.13;;;29.20;73.10;;;;;;7384693;19;20011;-81
2023/09/08 10:49:21;;;;;;;14.75;5.88;;;29.30;73.00;;;;;;7384308;19;20003;-80
2023/09/08 10:51:53;;;;;;;14.20;5.50;;;29.30;72.90;;;;;;7384519;19;20477;-80
2023/09/08 10:54:46;;;;;;;16.27;5.45;;;29.40;72.60;;;;;;7384498;19;20787;-80
2023/09/08 10:57:22;;;;;;;20.73;5.22;;;29.50;72.10;;;;;;7385252;19;20034;-80
2023/09/08 11:00:00;;;;;;;21.25;5.45;;;29.50;71.90;;;;;;7383513;19;20007;-80
2023/09/08 11:02:37;;;;;;;19.65;5.50;;;29.60;71.40;;;;;;7384850;19;20003;-80
2023/09/08 11:05:11;;;;;;;14.73;5.60;;;29.70;71.10;;;;;;7407309;19;20084;-80
2023/09/08 11:07:41;;;;;;;22.08;5.32;;;29.70;70.80;;;;;;7384821;19;20023;-80
2023/09/08 11:10:16;;;;;;;18.67;5.15;;;29.70;71.00;;;;;;7384712;19;20007;-80
2023/09/08 11:12:51;;;;;;;17.08;5.28;;;29.80;70.00;;;;;;7384205;19;20267;-79
2023/09/08 11:15:23;;;;;;;10.48;5.05;;;29.80;69.70;;;;;;7383691;19;20010;-80
2023/09/08 11:17:52;;;;;;;11.95;4.97;;;29.90;69.70;;;;;;7386320;19;20014;-79
2023/09/08 11:20:32;;;;;;;13.05;5.20;;;29.90;69.30;;;;;;7383315;19;20009;-80
2023/09/08 11:23:07;;;;;;;14.63;5.03;;;30.00;67.70;;;;;;7403898;19;20011;-80
2023/09/08 11:25:51;;;;;;;20.52;4.97;;;30.10;68.20;;;;;;7384271;19;20027;-81
2023/09/08 11:28:32;;;;;;;16.27;5.68;;;30.10;67.80;;;;;;7384175;19;20017;-80
2023/09/08 11:31:10;;;;;;;;;;;30.20;67.70;;;;;;7403574;19;20023;-80
2023/09/08 11:33:41;;;;;;;18.92;4.72;;;30.20;67.70;;;;;;7407840;19;19997;-78
2023/09/08 11:36:19;;;;;;;20.17;5.10;;;30.30;68.00;;;;;;7407431;19;20090;-80
2023/09/08 11:38:54;;;;;;;16.23;5.22;;;30.30;67.00;;;;;;7405003;19;20017;-80
2023/09/08 11:41:29;;;;;;;17.35;4.93;;;30.30;66.40;;;;;;7381940;19;20011;-80
2023/09/08 11:44:07;;;;;;;14.52;4.35;;;30.40;66.90;;;;;;7403690;19;20011;-78
2023/09/08 11:46:42;;;;;;;12.20;4.90;;;30.50;66.90;;;;;;7383212;19;20015;-79
2023/09/08 11:49:10;;;;;;;19.55;5.25;;;30.50;66.20;;;;;;7383684;19;19998;-79
2023/09/08 11:51:42;;;;;;;11.55;4.53;;;30.60;65.70;;;;;;7383090;19;20007;-79
2023/09/08 11:54:15;;;;;;;18.48;4.90;;;30.60;65.30;;;;;;7381861;19;20574;-79
2023/09/08 11:56:47;;;;;;;13.73;4.30;;;30.70;64.90;;;;;;7381498;19;20263;-80
2023/09/08 11:59:25;;;;;;;15.77;4.78;;;30.80;63.70;;;;;;7403509;19;20003;-79
2023/09/08 12:02:00;;;;;;;12.60;4.25;;;30.80;62.80;;;;;;7382296;19;20335;-80
2023/09/08 12:04:32;;;;;;;18.23;4.20;;;30.90;62.10;;;;;;7382781;19;20015;-80
2023/09/08 12:07:01;;;;;;;16.65;4.68;;;30.90;61.90;;;;;;7381947;19;20007;-79
2023/09/08 12:09:33;;;;;;;12.40;4.40;;;31.00;61.60;;;;;;7383095;19;20337;-80
2023/09/08 12:12:06;;;;;;;15.57;4.13;;;31.00;61.30;;;;;;7382643;19;20017;-80
2023/09/08 12:14:53;;;;;;;16.70;4.45;;;31.10;61.20;;;;;;7383375;19;20102;-80
2023/09/08 12:17:26;;;;;;;22.10;4.65;;;31.20;60.80;;;;;;7382910;19;20018;-80
2023/09/08 12:20:01;;;;;;;10.20;3.95;;;31.20;60.40;;;;;;7402356;19;20036;-80
2023/09/08 12:22:56;;;;;;;16.48;4.88;;;31.30;60.80;;;;;;7380779;19;20484;-80
2023/09/08 12:25:31;;;;;;;25.80;5.10;;;31.40;62.00;;;;;;7381268;19;20010;-80
2023/09/08 12:28:10;;;;;;;24.17;4.72;;;31.50;61.90;;;;;;7381947;19;20006;-80
2023/09/08 12:38:03;;;;;;;;;;;;;;;;;;;;;
2023/09/08 12:41:03;;;;;;;12.05;4.40;;;31.90;61.60;;;;;;7379793;19;20220;-81
2023/09/08 12:44:03;;;;;;;21.50;5.00;;;31.90;59.90;;;;;;7357377;19;20022;-82
2023/09/08 12:46:49;;;;;;;11.52;4.22;;;32.00;59.50;;;;;;7399860;19;20010;-81
2023/09/08 12:49:59;;;;;;;;;;;;;;;;;;;;;
2023/09/08 12:52:53;;;;;;;16.65;3.97;;;32.20;59.60;;;;;;7382104;19;20011;-82
2023/09/08 12:55:59;;;;;;;10.75;4.25;;;32.30;59.60;;;;;;7366475;19;20006;-81
2023/09/08 12:58:48;;;;;;;9.30;4.30;;;32.30;58.30;;;;;;7408975;19;19999;-81
2023/09/08 13:01:41;;;;;;;11.27;4.55;;;32.40;58.70;;;;;;7388347;19;20007;-81
2023/09/08 13:05:00;;;;;;;;;;;;;;;;;;;;;
2023/09/08 13:07:43;;;;;;;14.68;4.30;;;32.50;58.60;;;;;;7389038;19;20041;-81
2023/09/08 13:13:29;;;;;;;13.80;4.43;;;32.20;58.50;;;;;;7387463;19;20003;-81
2023/09/08 13:16:49;;;;;;;22.20;3.92;;;32.20;58.60;;;;;;7388064;19;20007;-81
2023/09/08 13:39:56;;;;;;;10.90;4.72;;;32.90;57.70;;;;;;6853296;19;3030176;-81
2023/09/08 13:42:27;;;;;;;16.15;3.85;;;33.30;56.50;;;;;;7419001;19;20385;-81
2023/09/08 13:44:58;;;;;;;11.70;4.15;;;33.20;56.20;;;;;;7417012;19;20258;-81
2023/09/08 13:47:36;;;;;;;;;;;33.10;56.30;;;;;;7418888;19;20017;-81
2023/09/08 13:50:19;;;;;;;9.45;4.25;;;33.00;56.50;;;;;;7440199;19;19938;-80
2023/09/08 13:52:55;;;;;;;14.30;4.97;;;33.20;56.50;;;;;;7417858;19;20003;-81
2023/09/08 13:55:28;;;;;;;13.43;4.40;;;33.30;56.50;;;;;;7417664;19;20009;-81
2023/09/08 13:58:00;;;;;;;8.98;4.13;;;33.40;55.70;;;;;;7417273;19;20010;-80